Voidomatis — A8FX2 — position and weather

sailwx.info

Track history (hours):
 
Tides and Currents Weather Stations Pressure Air Temp Water Temp Dewpoint Dewpoint Depression Visibility Wind Speed Wind Dir Waves Ship Positions

Voidomatis

Last reported at 2014-Aug-23 03:33 UTC. Time now 2014-Aug-30 16:36 UTC.
Position N 39°10' W 076°26'.

Length 213 m; draft 9.4 m.

Type: Tanker. MMSI: 636012508.

Date/timePositionNaut miles runAvg speedWind from/ knotsBaromVisibWave heightAir tempDewpointWater temp
2014-Aug-23 03:33N 39°10' W 076°26'9 9.2
2014-Aug-23 02:33N 39°16' W 076°34'0 0.3
2014-Aug-23 01:33N 39°16' W 076°34'0 0.0
2014-Aug-23 00:33N 39°16' W 076°34'0 0.0
2014-Aug-22 23:33N 39°16' W 076°34'0 0.0
2014-Aug-22 22:33N 39°16' W 076°34'0 0.0
2014-Aug-22 21:33N 39°16' W 076°34'0 0.0
2014-Aug-22 20:33N 39°16' W 076°34'0 0.0
2014-Aug-22 19:33N 39°16' W 076°34'0 0.0
2014-Aug-22 18:33N 39°16' W 076°34'0 0.0
2014-Aug-22 17:33N 39°16' W 076°34'0 0.0
2014-Aug-22 16:33N 39°16' W 076°34'0 0.0
2014-Aug-22 15:33N 39°16' W 076°34'0 0.0
2014-Aug-22 14:33N 39°16' W 076°34'0 0.0
2014-Aug-22 13:33N 39°16' W 076°34'0 0.0
2014-Aug-22 12:33N 39°16' W 076°34'0 0.0
2014-Aug-22 11:33N 39°16' W 076°34'0 0.0
2014-Aug-22 10:33N 39°16' W 076°34'0 0.0
2014-Aug-22 09:33N 39°16' W 076°34'0 0.0
2014-Aug-22 08:33N 39°16' W 076°34'0 0.1
2014-Aug-22 07:33N 39°16' W 076°35'3 3.4
2014-Aug-22 06:33N 39°13' W 076°32'9 8.8
2014-Aug-22 05:33N 39°09' W 076°22'6 5.6
2014-Aug-22 04:33N 39°12' W 076°16'9 8.8
2014-Aug-22 03:33N 39°20' W 076°11'52 3.9
2014-Aug-21 14:07N 39°51' W 075°16'0 0.0
2014-Aug-21 13:31N 39°51' W 075°16'0 0.0
2014-Aug-21 12:28N 39°51' W 075°16'0 0.0
2014-Aug-21 10:31N 39°51' W 075°16'0 0.0
2014-Aug-21 09:31N 39°51' W 075°16'0 0.0
2014-Aug-21 08:25N 39°51' W 075°16'0 0.0
2014-Aug-21 07:31N 39°51' W 075°16'0 0.0
2014-Aug-21 06:28N 39°51' W 075°16'0 0.0
2014-Aug-21 05:31N 39°51' W 075°16'0 0.0
2014-Aug-21 04:28N 39°51' W 075°16'0 0.0
2014-Aug-21 03:31N 39°51' W 075°16'0 0.0
2014-Aug-21 02:31N 39°51' W 075°16'0 0.0
2014-Aug-20 15:33N 39°51' W 075°16'4 4.1
2014-Aug-20 14:30N 39°50' W 075°22'2 2.5
2014-Aug-20 13:32N 39°48' W 075°24'0 0.0
2014-Aug-20 12:20N 39°48' W 075°24'0 0.0
2014-Aug-20 07:32N 39°48' W 075°24'0 0.0
2014-Aug-20 05:23N 39°48' W 075°24'0 0.0
2014-Aug-20 04:32N 39°48' W 075°24'0 0.0
2014-Aug-20 03:32N 39°48' W 075°24'0 0.1
2014-Aug-20 02:32N 39°49' W 075°24'  
2014-Aug-16 11:18N 39°53' W 075°11'1 0.8
2014-Aug-16 10:30N 39°53' W 075°12'6 6.4
2014-Aug-16 09:33N 39°51' W 075°19'  
Track history (hours):
 
Tides and Currents Weather Stations Pressure Air Temp Water Temp Dewpoint Dewpoint Depression Visibility Wind Speed Wind Dir Waves Ship Positions

Voidomatis

Last reported at 2014-Aug-23 03:33 UTC. Time now 2014-Aug-30 16:36 UTC.
Position N 39°10' W 076°26'.

Length 213 m; draft 9.4 m.

Type: Tanker. MMSI: 636012508.

Date/timePositionNaut miles runAvg speedWind from/ knotsBaromVisibWave heightAir tempDewpointWater temp
2014-Aug-23 03:33N 39°10' W 076°26'9 9.2
2014-Aug-23 02:33N 39°16' W 076°34'0 0.3
2014-Aug-23 01:33N 39°16' W 076°34'0 0.0
2014-Aug-23 00:33N 39°16' W 076°34'0 0.0
2014-Aug-22 23:33N 39°16' W 076°34'0 0.0
2014-Aug-22 22:33N 39°16' W 076°34'0 0.0
2014-Aug-22 21:33N 39°16' W 076°34'0 0.0
2014-Aug-22 20:33N 39°16' W 076°34'0 0.0
2014-Aug-22 19:33N 39°16' W 076°34'0 0.0
2014-Aug-22 18:33N 39°16' W 076°34'0 0.0
2014-Aug-22 17:33N 39°16' W 076°34'0 0.0
2014-Aug-22 16:33N 39°16' W 076°34'0 0.0
2014-Aug-22 15:33N 39°16' W 076°34'0 0.0
2014-Aug-22 14:33N 39°16' W 076°34'0 0.0
2014-Aug-22 13:33N 39°16' W 076°34'0 0.0
2014-Aug-22 12:33N 39°16' W 076°34'0 0.0
2014-Aug-22 11:33N 39°16' W 076°34'0 0.0
2014-Aug-22 10:33N 39°16' W 076°34'0 0.0
2014-Aug-22 09:33N 39°16' W 076°34'0 0.0
2014-Aug-22 08:33N 39°16' W 076°34'0 0.1
2014-Aug-22 07:33N 39°16' W 076°35'3 3.4
2014-Aug-22 06:33N 39°13' W 076°32'9 8.8
2014-Aug-22 05:33N 39°09' W 076°22'6 5.6
2014-Aug-22 04:33N 39°12' W 076°16'9 8.8
2014-Aug-22 03:33N 39°20' W 076°11'52 3.9
2014-Aug-21 14:07N 39°51' W 075°16'0 0.0
2014-Aug-21 13:31N 39°51' W 075°16'0 0.0
2014-Aug-21 12:28N 39°51' W 075°16'0 0.0
2014-Aug-21 10:31N 39°51' W 075°16'0 0.0
2014-Aug-21 09:31N 39°51' W 075°16'0 0.0
2014-Aug-21 08:25N 39°51' W 075°16'0 0.0
2014-Aug-21 07:31N 39°51' W 075°16'0 0.0
2014-Aug-21 06:28N 39°51' W 075°16'0 0.0
2014-Aug-21 05:31N 39°51' W 075°16'0 0.0
2014-Aug-21 04:28N 39°51' W 075°16'0 0.0
2014-Aug-21 03:31N 39°51' W 075°16'0 0.0
2014-Aug-21 02:31N 39°51' W 075°16'0 0.0
2014-Aug-20 15:33N 39°51' W 075°16'4 4.1
2014-Aug-20 14:30N 39°50' W 075°22'2 2.5
2014-Aug-20 13:32N 39°48' W 075°24'0 0.0
2014-Aug-20 12:20N 39°48' W 075°24'0 0.0
2014-Aug-20 07:32N 39°48' W 075°24'0 0.0
2014-Aug-20 05:23N 39°48' W 075°24'0 0.0
2014-Aug-20 04:32N 39°48' W 075°24'0 0.0
2014-Aug-20 03:32N 39°48' W 075°24'0 0.1
2014-Aug-20 02:32N 39°49' W 075°24'  
2014-Aug-16 11:18N 39°53' W 075°11'1 0.8
2014-Aug-16 10:30N 39°53' W 075°12'6 6.4
2014-Aug-16 09:33N 39°51' W 075°19'  

Dump ship's entire track history